Time;durP1;ratioP1;P1;durP2;ratioP2;P2;SDS_P1;SDS_P2;PMS_P1;PMS_P2;Temp;Humidity;BMP_temperature;BMP_pressure;BME280_temperature;BME280_humidity;BME280_pressure;Samples;Min_cycle;Max_cycle;Signal;HPM_P1;HPM_P2
2021/11/23 00:01:17;;;;;;;19.08;11.05;;;2.90;77.90;;;;;;4935309;29;20056;-85
2021/11/23 00:03:45;;;;;;;18.65;11.57;;;2.90;77.90;;;;;;4936983;29;20058;-84
2021/11/23 00:06:12;;;;;;;16.77;10.57;;;2.90;77.90;;;;;;4935102;29;20047;-84
2021/11/23 00:08:40;;;;;;;16.73;10.93;;;2.90;77.80;;;;;;4935185;29;20055;-84
2021/11/23 00:11:07;;;;;;;17.30;11.02;;;2.80;77.80;;;;;;4935282;29;20097;-84
2021/11/23 00:13:34;;;;;;;16.98;11.30;;;2.80;77.80;;;;;;4935157;29;20111;-84
2021/11/23 00:16:01;;;;;;;15.98;10.93;;;2.80;77.80;;;;;;4936484;29;20051;-84
2021/11/23 00:18:28;;;;;;;16.00;10.43;;;2.80;77.90;;;;;;4933353;29;20059;-84
2021/11/23 00:20:55;;;;;;;20.80;11.60;;;2.70;77.90;;;;;;4934983;29;20059;-84
2021/11/23 00:23:22;;;;;;;16.35;10.90;;;2.70;77.90;;;;;;4934798;29;20435;-84
2021/11/23 00:25:49;;;;;;;19.85;10.52;;;2.70;78.00;;;;;;4934903;29;20051;-84
2021/11/23 00:28:16;;;;;;;16.02;10.85;;;2.70;78.00;;;;;;4935040;29;20055;-83
2021/11/23 00:30:45;;;;;;;19.63;10.52;;;2.70;78.00;;;;;;4936770;29;20058;-84
2021/11/23 00:33:14;;;;;;;17.17;11.20;;;2.70;78.10;;;;;;4934381;29;20051;-84
2021/11/23 00:35:41;;;;;;;19.80;11.40;;;2.60;78.10;;;;;;4934627;29;20055;-84
2021/11/23 00:38:13;;;;;;;18.23;11.18;;;2.70;78.10;;;;;;4933387;29;20055;-84
2021/11/23 00:40:41;;;;;;;17.98;11.35;;;2.60;78.10;;;;;;4934776;29;20051;-84
2021/11/23 00:43:08;;;;;;;18.63;10.57;;;2.60;78.20;;;;;;4935074;29;20056;-83
2021/11/23 00:45:36;;;;;;;20.17;11.18;;;2.60;78.20;;;;;;4935879;29;20048;-84
2021/11/23 00:48:04;;;;;;;17.85;11.23;;;2.60;78.20;;;;;;4934411;29;20055;-83
2021/11/23 00:50:32;;;;;;;17.73;11.15;;;2.60;78.20;;;;;;4934427;29;20067;-83
2021/11/23 00:53:00;;;;;;;18.75;11.13;;;2.60;78.30;;;;;;4933514;29;20054;-84
2021/11/23 00:55:28;;;;;;;18.25;11.77;;;2.60;78.20;;;;;;4919503;29;20056;-83
2021/11/23 00:57:55;;;;;;;14.88;10.95;;;2.60;78.20;;;;;;4932600;29;20055;-83
2021/11/23 01:00:23;;;;;;;16.63;11.65;;;2.60;78.20;;;;;;4934236;29;20059;-83
2021/11/23 01:02:50;;;;;;;16.13;11.13;;;2.50;78.30;;;;;;4934229;29;20118;-83
2021/11/23 01:05:17;;;;;;;18.48;11.85;;;2.50;78.20;;;;;;4934121;29;20056;-83
2021/11/23 01:07:45;;;;;;;16.38;10.85;;;2.50;78.20;;;;;;4934102;29;20051;-83
2021/11/23 01:10:12;;;;;;;15.15;10.75;;;2.50;78.20;;;;;;4934097;29;20067;-83
2021/11/23 01:12:39;;;;;;;16.77;10.63;;;2.50;78.20;;;;;;4936088;29;20081;-83
2021/11/23 01:15:08;;;;;;;17.48;9.98;;;2.50;78.20;;;;;;4933724;29;20044;-83
2021/11/23 01:17:36;;;;;;;16.33;11.02;;;2.50;78.20;;;;;;4932640;29;20103;-83
2021/11/23 01:20:05;;;;;;;17.88;10.57;;;2.50;78.20;;;;;;4933996;29;20098;-83
2021/11/23 01:22:32;;;;;;;17.85;10.57;;;2.50;78.20;;;;;;4933795;29;20047;-83
2021/11/23 01:24:59;;;;;;;16.92;10.90;;;2.50;78.20;;;;;;4935231;29;20505;-83
2021/11/23 01:27:26;;;;;;;17.17;11.20;;;2.50;78.20;;;;;;4933168;29;20059;-83
2021/11/23 01:29:53;;;;;;;17.83;11.77;;;2.50;78.20;;;;;;4933275;29;20509;-83
2021/11/23 01:32:21;;;;;;;17.27;11.40;;;2.50;78.20;;;;;;4933573;29;20091;-82
2021/11/23 01:34:48;;;;;;;16.10;10.88;;;2.50;78.30;;;;;;4933819;29;20071;-83
2021/11/23 01:37:15;;;;;;;16.83;10.98;;;2.40;78.30;;;;;;4933805;29;20103;-83
2021/11/23 01:39:42;;;;;;;16.50;10.90;;;2.40;78.20;;;;;;4935597;29;20048;-83
2021/11/23 01:42:10;;;;;;;14.15;10.43;;;2.40;78.30;;;;;;4933572;29;20056;-83
2021/11/23 01:44:37;;;;;;;14.48;10.30;;;2.40;78.30;;;;;;4933094;29;20118;-82
2021/11/23 01:47:04;;;;;;;17.63;10.90;;;2.40;78.20;;;;;;4933467;29;20052;-82
2021/11/23 01:49:31;;;;;;;16.20;10.57;;;2.40;78.20;;;;;;4933555;29;20106;-83
2021/11/23 01:51:59;;;;;;;15.75;10.35;;;2.40;78.20;;;;;;4934992;29;20055;-82
2021/11/23 01:54:25;;;;;;;15.50;10.32;;;2.40;78.20;;;;;;4932500;29;20051;-83
2021/11/23 01:56:53;;;;;;;19.75;11.20;;;2.40;78.20;;;;;;4931667;29;20513;-83
2021/11/23 01:59:20;;;;;;;19.58;11.55;;;2.30;78.20;;;;;;4932855;29;20118;-82
2021/11/23 02:01:46;;;;;;;18.35;11.57;;;2.30;78.20;;;;;;4933312;29;20050;-82
2021/11/23 02:04:13;;;;;;;14.82;10.95;;;2.30;78.20;;;;;;4933050;29;20048;-83
2021/11/23 02:06:41;;;;;;;15.85;10.57;;;2.30;78.20;;;;;;4935021;29;20051;-84
2021/11/23 02:09:08;;;;;;;18.33;10.75;;;2.30;78.20;;;;;;4932977;29;20078;-84
2021/11/23 02:11:35;;;;;;;15.07;10.68;;;2.30;78.20;;;;;;4932848;29;20058;-82
2021/11/23 02:14:03;;;;;;;14.82;9.95;;;2.30;78.20;;;;;;4932636;29;20046;-83
2021/11/23 02:16:31;;;;;;;18.33;10.95;;;2.30;78.30;;;;;;4932977;29;20060;-84
2021/11/23 02:18:58;;;;;;;15.68;10.50;;;2.20;78.30;;;;;;4934421;29;20051;-83
2021/11/23 02:21:25;;;;;;;15.55;10.52;;;2.20;78.30;;;;;;4932171;29;20059;-83
2021/11/23 02:23:52;;;;;;;15.75;10.07;;;2.20;78.30;;;;;;4932733;29;20048;-83
2021/11/23 02:26:19;;;;;;;18.67;11.13;;;2.20;78.30;;;;;;4932520;29;20059;-83
2021/11/23 02:28:46;;;;;;;17.45;10.30;;;2.20;78.30;;;;;;4932525;29;20047;-82
2021/11/23 02:31:13;;;;;;;19.73;10.52;;;2.20;78.30;;;;;;4932755;29;20059;-83
2021/11/23 02:33:40;;;;;;;16.63;10.85;;;2.20;78.40;;;;;;4934580;29;20051;-83
2021/11/23 02:36:09;;;;;;;14.35;10.02;;;2.20;78.40;;;;;;4931319;29;20056;-82
2021/11/23 02:38:38;;;;;;;19.58;11.75;;;2.10;78.40;;;;;;4932527;29;20770;-84
2021/11/23 02:41:08;;;;;;;15.48;10.13;;;2.20;78.40;;;;;;4932431;29;20099;-83
2021/11/23 02:43:36;;;;;;;17.70;10.60;;;2.10;78.40;;;;;;4932182;29;20126;-83
2021/11/23 02:46:03;;;;;;;14.77;10.32;;;2.10;78.40;;;;;;4933621;29;20535;-83
2021/11/23 02:48:31;;;;;;;16.17;10.18;;;2.10;78.40;;;;;;4933428;29;20061;-82
2021/11/23 02:51:11;;;;;;;14.40;10.50;;;2.10;78.40;;;;;;4932336;29;20047;-82
2021/11/23 02:53:38;;;;;;;15.95;10.40;;;2.10;78.40;;;;;;4932018;29;20534;-82
2021/11/23 02:56:05;;;;;;;16.92;10.82;;;2.10;78.40;;;;;;4931739;29;20055;-82
2021/11/23 02:58:33;;;;;;;16.65;10.00;;;2.10;78.50;;;;;;4932251;29;20055;-82
2021/11/23 03:01:03;;;;;;;16.40;10.35;;;2.00;78.50;;;;;;4933352;29;20051;-83
2021/11/23 03:03:30;;;;;;;13.30;9.55;;;2.10;78.50;;;;;;4933384;29;20048;-83
2021/11/23 03:05:58;;;;;;;16.27;10.50;;;2.10;78.50;;;;;;4931976;29;20516;-82
2021/11/23 03:08:25;;;;;;;18.38;11.02;;;2.00;78.50;;;;;;4931962;29;20047;-82
2021/11/23 03:10:53;;;;;;;18.20;10.25;;;2.00;78.40;;;;;;4930566;29;20055;-82
2021/11/23 03:13:20;;;;;;;13.93;9.73;;;2.00;78.40;;;;;;4931504;29;20040;-83
2021/11/23 03:15:47;;;;;;;15.95;9.75;;;2.00;78.40;;;;;;4932921;29;20047;-82
2021/11/23 03:18:14;;;;;;;16.48;9.88;;;2.00;78.40;;;;;;4931829;29;20055;-83
2021/11/23 03:20:44;;;;;;;17.08;9.52;;;2.00;78.40;;;;;;4931949;29;20144;-82
2021/11/23 03:23:12;;;;;;;15.38;10.05;;;2.00;78.40;;;;;;4931686;29;20433;-83
2021/11/23 03:25:40;;;;;;;14.75;10.55;;;2.00;78.50;;;;;;4931574;29;20051;-82
2021/11/23 03:28:07;;;;;;;14.02;9.60;;;2.00;78.50;;;;;;4932401;29;20063;-82
2021/11/23 03:30:35;;;;;;;16.40;10.15;;;2.00;78.50;;;;;;4933386;29;20052;-82
2021/11/23 03:33:05;;;;;;;16.70;10.65;;;2.00;78.50;;;;;;4931667;29;20059;-82
2021/11/23 03:35:34;;;;;;;15.45;9.60;;;2.00;78.50;;;;;;4931695;29;20052;-82
2021/11/23 03:38:03;;;;;;;17.70;11.05;;;2.00;78.60;;;;;;4931727;29;20047;-82
2021/11/23 03:40:31;;;;;;;17.23;10.35;;;2.00;78.60;;;;;;4931401;29;20119;-82
2021/11/23 03:42:58;;;;;;;19.20;10.32;;;1.90;78.70;;;;;;4933050;29;20509;-82
2021/11/23 03:45:26;;;;;;;16.63;10.43;;;1.90;78.70;;;;;;4930965;29;20055;-82
2021/11/23 03:47:54;;;;;;;18.00;10.40;;;1.90;78.70;;;;;;4931540;29;20127;-82
2021/11/23 03:50:21;;;;;;;18.48;11.02;;;1.90;78.70;;;;;;4931504;29;20465;-82
2021/11/23 03:52:49;;;;;;;14.57;10.23;;;2.00;78.80;;;;;;4930298;29;20059;-82
2021/11/23 03:55:19;;;;;;;19.55;10.75;;;1.90;78.80;;;;;;4931091;29;20075;-82
2021/11/23 03:57:47;;;;;;;16.75;10.35;;;1.90;78.80;;;;;;4933446;29;20052;-82
2021/11/23 04:00:18;;;;;;;16.80;10.40;;;1.90;78.80;;;;;;4931388;29;20051;-82
2021/11/23 04:02:47;;;;;;;19.48;10.60;;;1.90;78.80;;;;;;4931367;29;20052;-82
2021/11/23 04:05:15;;;;;;;18.00;10.48;;;1.90;78.80;;;;;;4931482;29;20067;-82
2021/11/23 04:07:42;;;;;;;15.50;9.70;;;1.90;78.80;;;;;;4931311;29;20568;-82
2021/11/23 04:10:11;;;;;;;15.38;9.88;;;1.90;78.80;;;;;;4931511;29;20493;-82
2021/11/23 04:12:39;;;;;;;15.18;9.90;;;1.90;78.80;;;;;;4931489;29;20063;-82
2021/11/23 04:15:07;;;;;;;15.20;10.18;;;1.90;78.80;;;;;;4931318;29;20043;-82
2021/11/23 04:17:35;;;;;;;14.20;10.35;;;1.90;78.80;;;;;;4931251;29;20562;-82
2021/11/23 04:20:04;;;;;;;12.88;9.88;;;1.90;78.80;;;;;;4931328;29;20047;-82
2021/11/23 04:22:31;;;;;;;15.43;9.80;;;1.90;78.80;;;;;;4931370;29;20059;-81
2021/11/23 04:24:58;;;;;;;14.27;9.63;;;1.90;78.80;;;;;;4932322;29;20168;-82
2021/11/23 04:27:27;;;;;;;15.77;9.43;;;1.90;78.80;;;;;;4930997;29;20055;-82
2021/11/23 04:29:54;;;;;;;13.63;9.77;;;1.90;78.80;;;;;;4934818;29;20048;-82
2021/11/23 04:32:21;;;;;;;13.05;9.65;;;1.90;78.80;;;;;;4933331;29;20539;-82
2021/11/23 04:34:48;;;;;;;15.52;10.00;;;1.90;78.80;;;;;;4934844;29;20048;-82
2021/11/23 04:37:15;;;;;;;14.35;9.80;;;1.90;78.80;;;;;;4934731;29;20556;-82
2021/11/23 04:39:43;;;;;;;17.80;9.38;;;1.90;78.80;;;;;;4936660;29;20055;-83
2021/11/23 04:42:10;;;;;;;15.75;10.02;;;1.80;78.80;;;;;;4934595;29;20044;-83
2021/11/23 04:44:37;;;;;;;17.55;10.18;;;1.90;78.80;;;;;;4934706;29;20059;-82
2021/11/23 04:47:04;;;;;;;18.13;10.25;;;1.90;78.80;;;;;;4934379;29;20532;-82
2021/11/23 04:49:31;;;;;;;16.00;10.32;;;1.80;78.80;;;;;;4933443;29;20058;-82
2021/11/23 04:51:58;;;;;;;12.70;9.32;;;1.80;78.80;;;;;;4935523;29;20520;-82
2021/11/23 04:54:25;;;;;;;13.88;9.90;;;1.80;78.80;;;;;;4933755;29;20538;-82
2021/11/23 04:56:52;;;;;;;14.63;10.65;;;1.80;78.80;;;;;;4934202;29;20177;-82
2021/11/23 04:59:19;;;;;;;16.55;10.07;;;1.80;78.80;;;;;;4934213;29;20158;-82
2021/11/23 05:01:46;;;;;;;12.70;9.35;;;1.80;78.80;;;;;;4934294;29;20047;-82
2021/11/23 05:04:13;;;;;;;14.30;10.20;;;1.80;78.80;;;;;;4933083;29;20563;-82
2021/11/23 05:06:40;;;;;;;14.98;10.13;;;1.80;78.80;;;;;;4935849;29;20102;-81
2021/11/23 05:09:07;;;;;;;14.32;10.05;;;1.70;78.80;;;;;;4934058;29;20531;-82
2021/11/23 05:11:36;;;;;;;19.20;10.45;;;1.80;78.80;;;;;;4932825;29;20051;-81
2021/11/23 05:14:03;;;;;;;15.10;9.90;;;1.80;78.80;;;;;;4934110;29;20048;-82
2021/11/23 05:16:30;;;;;;;16.52;10.50;;;1.70;78.80;;;;;;4934155;29;20071;-82
2021/11/23 05:18:57;;;;;;;14.27;10.18;;;1.70;78.80;;;;;;4935507;29;20059;-81
2021/11/23 05:21:24;;;;;;;12.98;9.77;;;1.70;78.80;;;;;;4933911;29;20047;-82
2021/11/23 05:23:51;;;;;;;14.73;10.73;;;1.80;78.80;;;;;;4933742;29;20091;-82
2021/11/23 05:26:18;;;;;;;15.05;10.38;;;1.70;78.90;;;;;;4933762;29;20047;-82
2021/11/23 05:28:45;;;;;;;15.50;10.65;;;1.70;78.90;;;;;;4933810;29;20047;-82
2021/11/23 05:31:12;;;;;;;15.48;10.50;;;1.70;78.90;;;;;;4933744;29;20056;-82
2021/11/23 05:33:39;;;;;;;16.73;10.80;;;1.70;78.90;;;;;;4935790;29;20048;-82
2021/11/23 05:36:06;;;;;;;19.02;10.73;;;1.70;78.90;;;;;;4933307;29;20067;-83
2021/11/23 05:38:32;;;;;;;14.90;10.23;;;1.70;78.90;;;;;;4933250;29;20051;-82
2021/11/23 05:40:59;;;;;;;18.10;10.52;;;1.70;78.90;;;;;;4933579;29;20052;-83
2021/11/23 05:43:28;;;;;;;15.35;10.70;;;1.70;78.90;;;;;;4933672;29;20044;-83
2021/11/23 05:45:54;;;;;;;15.73;10.73;;;1.70;78.80;;;;;;4931756;29;20056;-83
2021/11/23 05:48:21;;;;;;;17.85;11.32;;;1.60;78.80;;;;;;4932174;29;20409;-83
2021/11/23 05:50:48;;;;;;;14.55;10.48;;;1.60;78.80;;;;;;4931728;29;20052;-83
2021/11/23 05:53:15;;;;;;;15.75;10.13;;;1.70;78.80;;;;;;4933265;29;20058;-82
2021/11/23 05:55:42;;;;;;;15.38;11.18;;;1.70;78.80;;;;;;4933227;29;20583;-83
2021/11/23 05:58:10;;;;;;;15.13;11.15;;;1.60;78.80;;;;;;4933634;29;20106;-82
2021/11/23 06:00:37;;;;;;;14.68;11.05;;;1.60;78.90;;;;;;4933186;29;20508;-82
2021/11/23 06:03:04;;;;;;;16.15;10.85;;;1.60;78.90;;;;;;4933103;29;20062;-82
2021/11/23 06:05:31;;;;;;;14.13;10.05;;;1.60;78.90;;;;;;4932746;29;20062;-82
2021/11/23 06:07:58;;;;;;;17.75;11.63;;;1.60;78.90;;;;;;4933149;29;20044;-82
2021/11/23 06:10:25;;;;;;;17.77;11.15;;;1.60;78.90;;;;;;4918065;29;20047;-82
2021/11/23 06:12:52;;;;;;;16.67;11.55;;;1.60;78.90;;;;;;4930854;29;20468;-82
2021/11/23 06:15:21;;;;;;;14.32;9.70;;;1.60;78.90;;;;;;4933115;29;20051;-82
2021/11/23 06:17:50;;;;;;;14.85;11.60;;;1.50;78.90;;;;;;4932766;29;20048;-82
2021/11/23 06:20:17;;;;;;;16.90;11.82;;;1.60;79.00;;;;;;4932395;29;20107;-82
2021/11/23 06:22:44;;;;;;;19.20;12.50;;;1.60;79.00;;;;;;4932855;29;20056;-82
2021/11/23 06:25:11;;;;;;;16.58;12.80;;;1.50;79.00;;;;;;4933060;29;20056;-82
2021/11/23 06:27:38;;;;;;;17.05;12.00;;;1.50;79.00;;;;;;4932767;29;20119;-81
2021/11/23 06:30:06;;;;;;;19.90;12.52;;;1.50;79.00;;;;;;4931450;29;20058;-82
2021/11/23 06:32:34;;;;;;;15.98;12.05;;;1.50;79.00;;;;;;4932572;29;20052;-81
2021/11/23 06:35:01;;;;;;;20.17;11.80;;;1.50;79.00;;;;;;4932186;29;20115;-82
2021/11/23 06:37:28;;;;;;;16.15;12.05;;;1.50;79.00;;;;;;4932698;29;20048;-82
2021/11/23 06:39:55;;;;;;;17.08;11.85;;;1.50;79.00;;;;;;4934645;29;20059;-82
2021/11/23 06:42:22;;;;;;;17.60;12.40;;;1.50;79.00;;;;;;4932790;29;20047;-82
2021/11/23 06:44:49;;;;;;;15.07;10.90;;;1.50;79.10;;;;;;4932432;29;20484;-83
2021/11/23 06:47:16;;;;;;;14.95;11.30;;;1.50;79.10;;;;;;4932213;29;20047;-82
2021/11/23 06:49:44;;;;;;;14.70;11.13;;;1.50;79.10;;;;;;4931764;29;20051;-82
2021/11/23 06:52:11;;;;;;;15.82;11.80;;;1.50;79.10;;;;;;4932121;29;20417;-82
2021/11/23 06:54:38;;;;;;;14.93;11.65;;;1.50;79.10;;;;;;4932449;29;20469;-82
2021/11/23 06:57:06;;;;;;;12.95;10.93;;;1.50;79.10;;;;;;4932036;29;20056;-82
2021/11/23 06:59:36;;;;;;;14.73;11.10;;;1.50;79.10;;;;;;4932160;29;20047;-82
2021/11/23 07:02:04;;;;;;;15.90;11.32;;;1.50;79.10;;;;;;4932148;29;20655;-82
2021/11/23 07:04:32;;;;;;;16.55;11.05;;;1.50;79.10;;;;;;4931845;29;20461;-82
2021/11/23 07:07:00;;;;;;;19.83;11.90;;;1.50;79.10;;;;;;4933561;29;20051;-82
2021/11/23 07:09:27;;;;;;;16.73;11.80;;;1.50;79.10;;;;;;4931470;29;20061;-82
2021/11/23 07:11:54;;;;;;;19.13;11.95;;;1.50;79.10;;;;;;4931924;29;20528;-81
2021/11/23 07:14:21;;;;;;;18.25;12.15;;;1.50;79.10;;;;;;4931969;29;20576;-82
2021/11/23 07:16:49;;;;;;;22.17;12.05;;;1.50;79.10;;;;;;4931673;29;20047;-82
2021/11/23 07:19:16;;;;;;;13.77;10.15;;;1.40;79.10;;;;;;4931945;29;20418;-82
2021/11/23 07:21:43;;;;;;;17.85;11.73;;;1.40;79.20;;;;;;4933758;29;20509;-82
2021/11/23 07:24:11;;;;;;;17.88;11.50;;;1.50;79.20;;;;;;4931834;29;20090;-82
2021/11/23 07:26:38;;;;;;;18.23;11.48;;;1.50;79.20;;;;;;4931775;29;20055;-82
2021/11/23 07:29:06;;;;;;;17.33;11.52;;;1.50;79.30;;;;;;4931701;29;20123;-82
2021/11/23 07:31:34;;;;;;;22.05;12.10;;;1.50;79.30;;;;;;4931530;29;20487;-83
2021/11/23 07:34:02;;;;;;;21.50;12.30;;;1.40;79.30;;;;;;4932700;29;20063;-83
2021/11/23 07:36:29;;;;;;;15.93;12.10;;;1.50;79.30;;;;;;4923638;29;20054;-82
2021/11/23 07:39:00;;;;;;;20.08;12.70;;;1.50;79.40;;;;;;4934065;29;20058;-82
2021/11/23 07:41:28;;;;;;;17.58;11.95;;;1.50;79.40;;;;;;4939994;28;20505;-82
2021/11/23 07:43:56;;;;;;;15.80;12.15;;;1.50;79.50;;;;;;4932738;29;20048;-82
2021/11/23 07:46:25;;;;;;;18.83;12.43;;;1.50;79.50;;;;;;4931887;29;20461;-82
2021/11/23 07:48:54;;;;;;;18.08;12.65;;;1.50;79.50;;;;;;4934378;29;20052;-82
2021/11/23 07:51:23;;;;;;;18.23;13.25;;;1.50;79.60;;;;;;4932531;29;20051;-82
2021/11/23 07:53:50;;;;;;;20.40;12.68;;;1.50;79.60;;;;;;4932672;29;20051;-82
2021/11/23 07:56:17;;;;;;;19.67;12.60;;;1.50;79.60;;;;;;4932273;29;20040;-82
2021/11/23 07:58:44;;;;;;;25.08;13.88;;;1.50;79.60;;;;;;4932702;29;20054;-82
2021/11/23 08:01:12;;;;;;;18.65;13.07;;;1.50;79.70;;;;;;4932216;29;20051;-82
2021/11/23 08:03:40;;;;;;;22.48;13.38;;;1.60;79.80;;;;;;4938255;29;20526;-82
2021/11/23 08:06:08;;;;;;;16.77;13.10;;;1.60;79.80;;;;;;4936243;29;20044;-83
2021/11/23 08:08:35;;;;;;;18.60;13.93;;;1.60;79.80;;;;;;4936312;29;20064;-83
2021/11/23 08:11:03;;;;;;;19.40;15.15;;;1.60;79.80;;;;;;4936134;29;20048;-83
2021/11/23 08:13:30;;;;;;;21.58;15.27;;;1.60;79.80;;;;;;4936500;29;20052;-83
2021/11/23 08:16:03;;;;;;;21.95;14.65;;;1.60;79.80;;;;;;4937380;29;20055;-83
2021/11/23 08:18:31;;;;;;;19.98;15.00;;;1.60;79.90;;;;;;4936816;29;20056;-83
2021/11/23 08:20:59;;;;;;;21.98;15.82;;;1.60;79.90;;;;;;4936089;29;20098;-83
2021/11/23 08:23:27;;;;;;;21.38;14.93;;;1.70;79.90;;;;;;4936171;29;20084;-83
2021/11/23 08:25:54;;;;;;;21.70;14.60;;;1.60;79.90;;;;;;4934555;29;20476;-83
2021/11/23 08:28:24;;;;;;;22.88;16.20;;;1.70;79.90;;;;;;4935978;29;20059;-83
2021/11/23 08:30:51;;;;;;;24.73;15.93;;;1.70;79.90;;;;;;4937519;29;20505;-83
2021/11/23 08:33:18;;;;;;;27.23;17.42;;;1.70;79.90;;;;;;4935785;29;20103;-83
2021/11/23 08:35:46;;;;;;;25.95;17.38;;;1.70;80.00;;;;;;4935854;29;20110;-83
2021/11/23 08:38:13;;;;;;;26.02;17.05;;;1.70;80.00;;;;;;4935857;29;20048;-82
2021/11/23 08:40:40;;;;;;;24.27;16.88;;;1.70;80.00;;;;;;4935700;29;20108;-82
2021/11/23 08:43:08;;;;;;;25.08;17.67;;;1.80;80.10;;;;;;4936390;29;20054;-82
2021/11/23 08:45:36;;;;;;;25.55;17.38;;;1.80;80.10;;;;;;4937218;29;20536;-82
2021/11/23 08:48:03;;;;;;;24.48;17.00;;;1.80;80.20;;;;;;4935273;29;20083;-83
2021/11/23 08:50:30;;;;;;;24.35;17.60;;;1.80;80.20;;;;;;4935517;29;20110;-82
2021/11/23 08:52:58;;;;;;;28.08;18.17;;;1.90;80.20;;;;;;4934850;29;20051;-83
2021/11/23 08:55:26;;;;;;;26.45;18.30;;;1.90;80.30;;;;;;4920197;29;20044;-83
2021/11/23 08:57:54;;;;;;;27.05;17.55;;;1.90;80.30;;;;;;4933208;29;20469;-83
2021/11/23 09:00:22;;;;;;;25.30;18.90;;;1.90;80.30;;;;;;4935202;29;20051;-82
2021/11/23 09:02:53;;;;;;;26.50;17.58;;;1.90;80.40;;;;;;4934084;29;20047;-83
2021/11/23 09:05:23;;;;;;;27.02;18.23;;;1.90;80.40;;;;;;4933729;29;20059;-82
2021/11/23 09:07:51;;;;;;;25.65;18.40;;;1.90;80.50;;;;;;4935514;29;20542;-83
2021/11/23 09:10:22;;;;;;;25.45;18.20;;;1.90;80.60;;;;;;4934966;29;20433;-83
2021/11/23 09:12:50;;;;;;;23.95;18.63;;;2.00;80.60;;;;;;4936734;29;20047;-83
2021/11/23 09:15:18;;;;;;;28.15;19.63;;;2.00;80.70;;;;;;4934904;29;20056;-82
2021/11/23 09:17:45;;;;;;;23.60;17.83;;;2.00;80.70;;;;;;4934826;29;20441;-82
2021/11/23 09:20:14;;;;;;;29.83;20.92;;;2.00;80.80;;;;;;4935310;29;20055;-82
2021/11/23 09:22:42;;;;;;;26.83;19.27;;;2.10;80.90;;;;;;4935419;29;20047;-82
2021/11/23 09:25:11;;;;;;;25.60;19.83;;;2.10;80.90;;;;;;4935024;29;20059;-82
2021/11/23 09:27:38;;;;;;;28.10;19.90;;;2.20;81.00;;;;;;4934814;29;20056;-81
2021/11/23 09:30:08;;;;;;;22.98;18.58;;;2.20;81.00;;;;;;4934967;29;20055;-81
2021/11/23 09:32:35;;;;;;;25.73;19.08;;;2.20;81.00;;;;;;4934767;29;20472;-81
2021/11/23 09:35:02;;;;;;;27.45;19.38;;;2.30;81.10;;;;;;4935093;29;20047;-82
2021/11/23 09:37:30;;;;;;;24.48;19.15;;;2.30;81.10;;;;;;4935155;29;20044;-82
2021/11/23 09:39:57;;;;;;;24.25;18.73;;;2.40;81.20;;;;;;4936551;29;20048;-82
2021/11/23 09:42:24;;;;;;;29.38;21.15;;;2.40;81.20;;;;;;4935014;29;20086;-82
2021/11/23 09:44:50;;;;;;;24.30;18.98;;;2.40;81.20;;;;;;4933498;29;20047;-82
2021/11/23 09:47:18;;;;;;;27.33;19.23;;;2.50;81.20;;;;;;4934467;29;20051;-82
2021/11/23 09:49:45;;;;;;;27.05;19.60;;;2.50;81.20;;;;;;4934714;29;20102;-82
2021/11/23 09:52:12;;;;;;;24.70;18.95;;;2.60;81.30;;;;;;4934585;29;20048;-82
2021/11/23 09:54:40;;;;;;;24.70;19.30;;;2.60;81.30;;;;;;4936526;29;20108;-82
2021/11/23 09:57:07;;;;;;;27.02;20.38;;;2.70;81.30;;;;;;4934099;29;20082;-82
2021/11/23 09:59:34;;;;;;;26.67;19.52;;;2.70;81.40;;;;;;4934456;29;20051;-82
2021/11/23 10:02:02;;;;;;;26.23;19.60;;;2.80;81.40;;;;;;4934214;29;20139;-82
2021/11/23 10:05:15;;;;;;;26.15;19.52;;;2.90;81.40;;;;;;4934468;29;20084;-83
2021/11/23 10:07:44;;;;;;;27.02;21.52;;;2.90;81.40;;;;;;4921291;29;20059;-83
2021/11/23 10:10:18;;;;;;;28.25;21.25;;;2.90;81.40;;;;;;4934567;29;20051;-83
2021/11/23 10:12:59;;;;;;;25.50;19.83;;;3.00;81.40;;;;;;4935034;29;20048;-83
2021/11/23 10:15:29;;;;;;;27.25;19.58;;;3.00;81.40;;;;;;4933236;29;20115;-83
2021/11/23 10:18:12;;;;;;;27.42;20.10;;;3.10;81.40;;;;;;4933981;29;20055;-83
2021/11/23 10:20:44;;;;;;;27.77;20.43;;;3.20;81.50;;;;;;4938211;29;20052;-83
2021/11/23 10:23:17;;;;;;;26.90;20.40;;;3.20;81.50;;;;;;4932314;29;20295;-83
2021/11/23 10:25:47;;;;;;;25.88;20.50;;;3.30;81.50;;;;;;4932751;29;20048;-82
2021/11/23 10:28:14;;;;;;;25.13;20.17;;;3.40;81.50;;;;;;4933731;29;20461;-83
2021/11/23 10:30:45;;;;;;;27.90;19.92;;;3.40;81.50;;;;;;4935608;29;20055;-82
2021/11/23 10:33:14;;;;;;;29.80;19.30;;;3.40;81.60;;;;;;4933937;29;20094;-82
2021/11/23 10:35:43;;;;;;;25.30;19.83;;;3.50;81.60;;;;;;4933791;29;20106;-82
2021/11/23 10:38:11;;;;;;;26.40;19.67;;;3.50;81.60;;;;;;4933244;29;20048;-82
2021/11/23 10:40:39;;;;;;;25.75;19.48;;;3.60;81.60;;;;;;4933221;29;20056;-82
2021/11/23 10:43:09;;;;;;;24.00;19.40;;;3.70;81.60;;;;;;4934584;29;20075;-82
2021/11/23 10:45:42;;;;;;;27.48;20.17;;;3.70;81.60;;;;;;4933689;29;20055;-82
2021/11/23 10:48:11;;;;;;;26.55;20.05;;;3.70;81.60;;;;;;4931964;29;20048;-82
2021/11/23 10:50:41;;;;;;;27.73;19.58;;;3.90;81.60;;;;;;4933532;29;20079;-83
2021/11/23 10:53:15;;;;;;;24.02;19.40;;;3.90;81.60;;;;;;4933174;29;20107;-83
2021/11/23 10:55:44;;;;;;;26.35;20.13;;;3.90;81.50;;;;;;4933032;29;20106;-83
2021/11/23 10:58:13;;;;;;;25.88;19.48;;;4.00;81.50;;;;;;4933549;29;20048;-83
2021/11/23 11:00:42;;;;;;;27.13;19.27;;;4.00;81.50;;;;;;4933274;29;20055;-82
2021/11/23 11:03:12;;;;;;;23.95;18.55;;;4.10;81.50;;;;;;4931928;29;20047;-83
2021/11/23 11:05:40;;;;;;;24.27;18.63;;;4.10;81.50;;;;;;4933226;29;20056;-82
2021/11/23 11:08:08;;;;;;;23.48;18.48;;;4.20;81.50;;;;;;4932966;29;20421;-83
2021/11/23 11:10:37;;;;;;;24.65;18.25;;;4.20;81.50;;;;;;4932756;29;20059;-83
2021/11/23 11:13:07;;;;;;;26.42;18.67;;;4.30;81.50;;;;;;4934186;29;20051;-83
2021/11/23 11:15:44;;;;;;;24.23;17.95;;;4.40;81.40;;;;;;4934287;29;20055;-83
2021/11/23 11:18:13;;;;;;;25.60;18.50;;;4.40;81.40;;;;;;4932845;29;20048;-83
2021/11/23 11:20:50;;;;;;;26.67;18.33;;;4.40;81.40;;;;;;4933155;29;20056;-83
2021/11/23 11:23:24;;;;;;;23.23;18.30;;;4.50;81.40;;;;;;4932312;29;20081;-83
2021/11/23 11:28:58;;;;;;;23.40;18.02;;;4.60;81.40;;;;;;4863256;29;20523;-84
2021/11/23 11:31:38;;;;;;;22.02;17.08;;;4.70;81.30;;;;;;4860871;29;20504;-83
2021/11/23 11:34:15;;;;;;;21.73;16.30;;;4.80;81.40;;;;;;4854269;29;20518;-83
2021/11/23 11:36:44;;;;;;;24.33;17.17;;;4.90;81.30;;;;;;4873736;29;20053;-83
2021/11/23 11:39:43;;;;;;;23.23;17.92;;;4.90;81.30;;;;;;4874100;29;20426;-83
2021/11/23 11:42:32;;;;;;;22.33;17.80;;;5.00;81.30;;;;;;4874557;29;20546;-84
2021/11/23 11:45:10;;;;;;;21.95;16.10;;;5.00;81.30;;;;;;4874340;29;20475;-83
2021/11/23 11:47:37;;;;;;;20.58;16.83;;;5.10;81.30;;;;;;4859471;29;20561;-83
2021/11/23 11:50:08;;;;;;;23.27;16.50;;;5.20;81.30;;;;;;4874619;29;20053;-84
2021/11/23 11:52:54;;;;;;;21.70;16.73;;;5.30;81.20;;;;;;4874124;29;20045;-83
2021/11/23 11:55:26;;;;;;;21.20;15.82;;;5.40;81.20;;;;;;4874749;29;20057;-83
2021/11/23 11:57:55;;;;;;;20.45;15.52;;;5.40;81.10;;;;;;4876128;29;20101;-83
2021/11/23 12:00:27;;;;;;;21.55;15.57;;;5.50;81.10;;;;;;4874548;29;20053;-85
2021/11/23 12:03:14;;;;;;;18.98;14.13;;;5.50;81.10;;;;;;4874577;29;20053;-86
2021/11/23 12:06:07;;;;;;;22.58;14.50;;;5.60;81.10;;;;;;4921893;29;20060;-85
2021/11/23 12:08:37;;;;;;;20.35;14.57;;;5.80;81.10;;;;;;4919339;29;20060;-85
2021/11/23 12:11:09;;;;;;;20.65;14.48;;;5.90;81.10;;;;;;4919693;29;20457;-85
2021/11/23 12:13:54;;;;;;;19.83;14.05;;;5.90;81.00;;;;;;4916831;29;20453;-84
2021/11/23 12:16:27;;;;;;;21.92;14.18;;;6.00;80.90;;;;;;4930659;29;20063;-85
2021/11/23 12:19:24;;;;;;;20.63;13.60;;;6.00;80.80;;;;;;4930517;29;20047;-84
2021/11/23 12:22:02;;;;;;;19.60;13.85;;;6.10;80.80;;;;;;4918904;29;20067;-84
2021/11/23 12:24:38;;;;;;;17.60;13.93;;;6.20;80.70;;;;;;4929073;29;20052;-84
2021/11/23 12:27:10;;;;;;;16.95;12.98;;;6.30;80.60;;;;;;4921826;29;20059;-84
2021/11/23 12:29:37;;;;;;;18.48;12.95;;;6.30;80.50;;;;;;4923815;29;20048;-85
2021/11/23 12:32:05;;;;;;;19.30;12.32;;;6.40;80.50;;;;;;4929457;29;20047;-85
2021/11/23 12:34:32;;;;;;;16.40;12.15;;;6.40;80.40;;;;;;4916387;29;20542;-84
2021/11/23 12:37:03;;;;;;;16.63;11.30;;;6.40;80.30;;;;;;4917477;29;20044;-83
2021/11/23 12:39:37;;;;;;;18.77;11.93;;;6.50;80.30;;;;;;4928841;29;20425;-84
2021/11/23 12:42:08;;;;;;;22.52;12.10;;;6.50;80.20;;;;;;4921355;29;20127;-84
2021/11/23 12:44:41;;;;;;;21.48;11.90;;;6.60;80.20;;;;;;4919079;29;20059;-84
2021/11/23 12:47:20;;;;;;;21.73;11.50;;;6.60;80.10;;;;;;4919115;29;20063;-84
2021/11/23 12:50:00;;;;;;;20.50;11.95;;;6.70;80.10;;;;;;4919850;29;20111;-84